sensor_id;sensor_type;location;lat;lon;timestamp;pressure;altitude;pressure_sealevel;temperature;humidity
49044;BME280;34860;48.066;14.124;2024-02-15T00:02:36;97178.63;;;7.48;67.46
49044;BME280;34860;48.066;14.124;2024-02-15T00:05:25;97177.13;;;7.32;67.95
49044;BME280;34860;48.066;14.124;2024-02-15T00:08:14;97182.66;;;7.32;68.28
49044;BME280;34860;48.066;14.124;2024-02-15T00:11:04;97177.09;;;7.39;68.37
49044;BME280;34860;48.066;14.124;2024-02-15T00:13:53;97191.25;;;7.52;67.82
49044;BME280;34860;48.066;14.124;2024-02-15T00:16:45;97186.06;;;7.61;67.68
49044;BME280;34860;48.066;14.124;2024-02-15T00:19:35;97188.78;;;7.69;67.45
49044;BME280;34860;48.066;14.124;2024-02-15T00:22:24;97191.53;;;7.69;67.40
49044;BME280;34860;48.066;14.124;2024-02-15T00:25:13;97186.44;;;7.63;67.52
49044;BME280;34860;48.066;14.124;2024-02-15T00:28:03;97183.25;;;7.72;67.25
49044;BME280;34860;48.066;14.124;2024-02-15T00:30:52;97181.94;;;7.88;67.16
49044;BME280;34860;48.066;14.124;2024-02-15T00:33:44;97184.28;;;7.89;67.15
49044;BME280;34860;48.066;14.124;2024-02-15T00:36:34;97180.75;;;7.89;67.34
49044;BME280;34860;48.066;14.124;2024-02-15T00:39:23;97184.25;;;7.96;67.12
49044;BME280;34860;48.066;14.124;2024-02-15T00:42:12;97179.03;;;8.06;66.83
49044;BME280;34860;48.066;14.124;2024-02-15T00:45:03;97170.31;;;8.11;66.54
49044;BME280;34860;48.066;14.124;2024-02-15T00:47:53;97182.16;;;8.11;66.78
49044;BME280;34860;48.066;14.124;2024-02-15T00:50:51;97191.25;;;8.12;66.80
49044;BME280;34860;48.066;14.124;2024-02-15T00:53:40;97196.81;;;8.08;66.66
49044;BME280;34860;48.066;14.124;2024-02-15T00:56:29;97194.44;;;8.07;67.19
49044;BME280;34860;48.066;14.124;2024-02-15T00:59:20;97183.81;;;8.02;67.41
49044;BME280;34860;48.066;14.124;2024-02-15T01:02:09;97191.34;;;8.01;67.38
49044;BME280;34860;48.066;14.124;2024-02-15T01:05:00;97189.75;;;8.00;67.32
49044;BME280;34860;48.066;14.124;2024-02-15T01:07:50;97187.81;;;7.97;67.45
49044;BME280;34860;48.066;14.124;2024-02-15T01:10:39;97185.47;;;7.92;67.64
49044;BME280;34860;48.066;14.124;2024-02-15T01:13:29;97183.16;;;7.87;67.65
49044;BME280;34860;48.066;14.124;2024-02-15T01:16:18;97185.13;;;7.82;67.69
49044;BME280;34860;48.066;14.124;2024-02-15T01:19:09;97187.53;;;7.80;67.84
49044;BME280;34860;48.066;14.124;2024-02-15T01:21:58;97182.38;;;7.82;67.83
49044;BME280;34860;48.066;14.124;2024-02-15T01:24:49;97178.00;;;7.85;68.00
49044;BME280;34860;48.066;14.124;2024-02-15T01:27:38;97181.91;;;7.91;67.56
49044;BME280;34860;48.066;14.124;2024-02-15T01:30:28;97185.44;;;7.95;67.26
49044;BME280;34860;48.066;14.124;2024-02-15T01:33:17;97183.84;;;7.94;67.30
49044;BME280;34860;48.066;14.124;2024-02-15T01:36:08;97189.03;;;7.92;67.16
49044;BME280;34860;48.066;14.124;2024-02-15T01:38:57;97188.25;;;7.92;67.25
49044;BME280;34860;48.066;14.124;2024-02-15T01:41:49;97189.03;;;7.92;67.19
49044;BME280;34860;48.066;14.124;2024-02-15T01:44:41;97175.63;;;7.87;67.02
49044;BME280;34860;48.066;14.124;2024-02-15T01:47:31;97176.88;;;7.79;66.92
49044;BME280;34860;48.066;14.124;2024-02-15T01:50:21;97173.00;;;7.69;66.91
49044;BME280;34860;48.066;14.124;2024-02-15T01:53:11;97169.84;;;7.63;66.94
49044;BME280;34860;48.066;14.124;2024-02-15T01:56:00;97165.53;;;7.59;66.87
49044;BME280;34860;48.066;14.124;2024-02-15T01:58:51;97163.97;;;7.58;66.95
49044;BME280;34860;48.066;14.124;2024-02-15T02:01:40;97158.88;;;7.49;66.89
49044;BME280;34860;48.066;14.124;2024-02-15T02:04:30;97157.78;;;7.36;66.93
49044;BME280;34860;48.066;14.124;2024-02-15T02:07:19;97164.56;;;7.20;66.99
49044;BME280;34860;48.066;14.124;2024-02-15T02:10:11;97153.53;;;7.13;67.18
49044;BME280;34860;48.066;14.124;2024-02-15T02:13:02;97156.31;;;7.09;67.11
49044;BME280;34860;48.066;14.124;2024-02-15T02:15:53;97148.03;;;7.09;67.19
49044;BME280;34860;48.066;14.124;2024-02-15T02:18:42;97148.81;;;7.10;66.92
49044;BME280;34860;48.066;14.124;2024-02-15T02:21:31;97148.03;;;7.09;67.19
49044;BME280;34860;48.066;14.124;2024-02-15T02:24:23;97149.19;;;7.12;67.23
49044;BME280;34860;48.066;14.124;2024-02-15T02:27:16;97145.22;;;7.17;67.14
49044;BME280;34860;48.066;14.124;2024-02-15T02:30:13;97132.97;;;7.18;67.10
49044;BME280;34860;48.066;14.124;2024-02-15T02:33:04;97137.31;;;7.19;67.19
49044;BME280;34860;48.066;14.124;2024-02-15T02:35:56;97136.91;;;7.20;67.26
49044;BME280;34860;48.066;14.124;2024-02-15T02:38:45;97121.47;;;7.26;67.21
49044;BME280;34860;48.066;14.124;2024-02-15T02:41:37;97122.22;;;7.31;67.17
49044;BME280;34860;48.066;14.124;2024-02-15T02:44:28;97120.66;;;7.33;67.32
49044;BME280;34860;48.066;14.124;2024-02-15T02:47:19;97121.81;;;7.39;67.26
49044;BME280;34860;48.066;14.124;2024-02-15T02:50:08;97122.97;;;7.42;67.28
49044;BME280;34860;48.066;14.124;2024-02-15T02:52:57;97122.19;;;7.41;67.43
49044;BME280;34860;48.066;14.124;2024-02-15T02:55:47;97125.31;;;7.43;67.64
49044;BME280;34860;48.066;14.124;2024-02-15T02:58:36;97128.06;;;7.47;67.81
49044;BME280;34860;48.066;14.124;2024-02-15T03:01:28;97130.78;;;7.54;67.71
49044;BME280;34860;48.066;14.124;2024-02-15T03:04:18;97119.28;;;7.59;67.80
49044;BME280;34860;48.066;14.124;2024-02-15T03:07:07;97125.59;;;7.63;67.76
49044;BME280;34860;48.066;14.124;2024-02-15T03:09:56;97124.78;;;7.67;67.76
49044;BME280;34860;48.066;14.124;2024-02-15T03:12:45;97129.88;;;7.72;67.67
49044;BME280;34860;48.066;14.124;2024-02-15T03:15:35;97116.00;;;7.75;67.66
49044;BME280;34860;48.066;14.124;2024-02-15T03:18:26;97110.47;;;7.75;67.70
49044;BME280;34860;48.066;14.124;2024-02-15T03:21:16;97111.66;;;7.78;67.58
49044;BME280;34860;48.066;14.124;2024-02-15T03:24:06;97105.34;;;7.77;67.78
49044;BME280;34860;48.066;14.124;2024-02-15T03:26:55;97106.53;;;7.76;67.83
49044;BME280;34860;48.066;14.124;2024-02-15T03:29:44;97101.81;;;7.73;67.83
49044;BME280;34860;48.066;14.124;2024-02-15T03:32:34;97104.97;;;7.72;67.85
49044;BME280;34860;48.066;14.124;2024-02-15T03:35:27;97115.66;;;7.70;67.80
49044;BME280;34860;48.066;14.124;2024-02-15T03:38:21;97120.00;;;7.71;67.86
49044;BME280;34860;48.066;14.124;2024-02-15T03:41:11;97117.63;;;7.73;67.76
49044;BME280;34860;48.066;14.124;2024-02-15T03:44:00;97117.63;;;7.73;67.84
49044;BME280;34860;48.066;14.124;2024-02-15T03:46:50;97125.50;;;7.74;67.64
49044;BME280;34860;48.066;14.124;2024-02-15T03:49:40;97112.06;;;7.76;67.85
49044;BME280;34860;48.066;14.124;2024-02-15T03:52:31;97115.59;;;7.80;67.73
49044;BME280;34860;48.066;14.124;2024-02-15T03:55:21;97114.38;;;7.81;67.78
49044;BME280;34860;48.066;14.124;2024-02-15T03:58:12;97114.03;;;7.76;68.10
49044;BME280;34860;48.066;14.124;2024-02-15T04:01:02;97123.91;;;7.77;68.11
49044;BME280;34860;48.066;14.124;2024-02-15T04:03:54;97125.50;;;7.74;68.38
49044;BME280;34860;48.066;14.124;2024-02-15T04:06:43;97123.09;;;7.80;68.27
49044;BME280;34860;48.066;14.124;2024-02-15T04:09:34;97117.13;;;7.85;68.18
49044;BME280;34860;48.066;14.124;2024-02-15T04:12:23;97124.22;;;7.90;67.97
49044;BME280;34860;48.066;14.124;2024-02-15T04:15:14;97124.63;;;7.88;67.85
49044;BME280;34860;48.066;14.124;2024-02-15T04:18:04;97130.19;;;7.81;68.50
49044;BME280;34860;48.066;14.124;2024-02-15T04:20:56;97137.72;;;7.77;68.76
49044;BME280;34860;48.066;14.124;2024-02-15T04:23:45;97138.97;;;7.72;68.89
49044;BME280;34860;48.066;14.124;2024-02-15T04:26:36;97137.03;;;7.66;69.12
49044;BME280;34860;48.066;14.124;2024-02-15T04:29:25;97131.91;;;7.64;69.34
49044;BME280;34860;48.066;14.124;2024-02-15T04:32:14;97137.38;;;7.71;69.12
49044;BME280;34860;48.066;14.124;2024-02-15T04:35:04;97141.72;;;7.76;68.82
49044;BME280;34860;48.066;14.124;2024-02-15T04:37:54;97147.97;;;7.84;68.65
49044;BME280;34860;48.066;14.124;2024-02-15T04:40:43;97145.19;;;7.87;68.52
49044;BME280;34860;48.066;14.124;2024-02-15T04:43:34;97138.47;;;7.85;68.52
49044;BME280;34860;48.066;14.124;2024-02-15T04:46:25;97145.25;;;7.76;68.67
49044;BME280;34860;48.066;14.124;2024-02-15T04:49:15;97146.91;;;7.67;68.91
49044;BME280;34860;48.066;14.124;2024-02-15T04:52:05;97141.81;;;7.61;69.13
49044;BME280;34860;48.066;14.124;2024-02-15T04:54:54;97142.19;;;7.63;69.09
49044;BME280;34860;48.066;14.124;2024-02-15T04:57:45;97143.78;;;7.64;68.93
49044;BME280;34860;48.066;14.124;2024-02-15T05:00:38;97147.72;;;7.63;68.89
49044;BME280;34860;48.066;14.124;2024-02-15T05:03:27;97145.72;;;7.64;68.83
49044;BME280;34860;48.066;14.124;2024-02-15T05:06:16;97141.75;;;7.69;68.71
49044;BME280;34860;48.066;14.124;2024-02-15T05:09:06;97148.03;;;7.76;68.48
49044;BME280;34860;48.066;14.124;2024-02-15T05:11:59;97141.75;;;7.69;68.48
49044;BME280;34860;48.066;14.124;2024-02-15T05:14:52;97147.75;;;7.60;69.07
49044;BME280;34860;48.066;14.124;2024-02-15T05:17:43;97150.94;;;7.55;69.31
49044;BME280;34860;48.066;14.124;2024-02-15T05:20:32;97162.50;;;7.39;69.78
49044;BME280;34860;48.066;14.124;2024-02-15T05:23:22;97157.41;;;7.30;70.07
49044;BME280;34860;48.066;14.124;2024-02-15T05:26:13;97153.41;;;7.42;69.82
49044;BME280;34860;48.066;14.124;2024-02-15T05:29:03;97159.25;;;7.55;69.14
49044;BME280;34860;48.066;14.124;2024-02-15T05:31:53;97151.25;;;7.64;68.78
49044;BME280;34860;48.066;14.124;2024-02-15T05:34:46;97148.50;;;7.68;68.59
49044;BME280;34860;48.066;14.124;2024-02-15T05:37:35;97148.47;;;7.71;68.53
49044;BME280;34860;48.066;14.124;2024-02-15T05:40:24;97154.78;;;7.72;68.39
49044;BME280;34860;48.066;14.124;2024-02-15T05:43:13;97153.22;;;7.71;68.42
49044;BME280;34860;48.066;14.124;2024-02-15T05:46:04;97148.06;;;7.73;68.50
49044;BME280;34860;48.066;14.124;2024-02-15T05:48:54;97149.59;;;7.77;68.61
49044;BME280;34860;48.066;14.124;2024-02-15T05:51:45;97154.72;;;7.79;68.39
49044;BME280;34860;48.066;14.124;2024-02-15T05:54:35;97153.53;;;7.80;68.29
49044;BME280;34860;48.066;14.124;2024-02-15T05:57:24;97151.97;;;7.79;68.16
49044;BME280;34860;48.066;14.124;2024-02-15T06:00:15;97157.09;;;7.77;68.18
49044;BME280;34860;48.066;14.124;2024-02-15T06:03:07;97149.59;;;7.77;68.21
49044;BME280;34860;48.066;14.124;2024-02-15T06:05:56;97168.16;;;7.77;68.23
49044;BME280;34860;48.066;14.124;2024-02-15T06:08:50;97153.63;;;7.69;68.50
49044;BME280;34860;48.066;14.124;2024-02-15T06:11:39;97156.41;;;7.62;68.81
49044;BME280;34860;48.066;14.124;2024-02-15T06:14:28;97157.63;;;7.57;69.13
49044;BME280;34860;48.066;14.124;2024-02-15T06:17:18;97157.59;;;7.61;68.81
49044;BME280;34860;48.066;14.124;2024-02-15T06:20:08;97161.91;;;7.66;68.96
49044;BME280;34860;48.066;14.124;2024-02-15T06:22:59;97168.25;;;7.62;68.52
49044;BME280;34860;48.066;14.124;2024-02-15T06:25:53;97165.25;;;7.42;68.62
49044;BME280;34860;48.066;14.124;2024-02-15T06:28:43;97167.28;;;7.24;68.54
49044;BME280;34860;48.066;14.124;2024-02-15T06:31:49;97181.16;;;7.17;68.61
49044;BME280;34860;48.066;14.124;2024-02-15T06:34:56;97172.50;;;7.07;68.88
49044;BME280;34860;48.066;14.124;2024-02-15T06:38:02;97170.94;;;7.03;68.98
49044;BME280;34860;48.066;14.124;2024-02-15T06:41:10;97165.00;;;7.12;68.88
49044;BME280;34860;48.066;14.124;2024-02-15T06:43:59;97173.22;;;7.22;68.72
49044;BME280;34860;48.066;14.124;2024-02-15T06:46:49;97171.25;;;7.26;68.76
49044;BME280;34860;48.066;14.124;2024-02-15T06:49:38;97166.88;;;7.29;68.79
49044;BME280;34860;48.066;14.124;2024-02-15T06:52:28;97171.59;;;7.36;68.82
49044;BME280;34860;48.066;14.124;2024-02-15T06:55:18;97164.47;;;7.42;68.67
49044;BME280;34860;48.066;14.124;2024-02-15T06:58:11;97168.03;;;7.39;69.00
49044;BME280;34860;48.066;14.124;2024-02-15T07:01:01;97174.66;;;7.52;68.66
49044;BME280;34860;48.066;14.124;2024-02-15T07:03:50;97168.22;;;7.70;68.49
49044;BME280;34860;48.066;14.124;2024-02-15T07:06:40;97168.09;;;7.88;68.31
49044;BME280;34860;48.066;14.124;2024-02-15T07:09:32;97167.56;;;8.04;68.16
49044;BME280;34860;48.066;14.124;2024-02-15T07:12:21;97169.81;;;8.19;68.04
49044;BME280;34860;48.066;14.124;2024-02-15T07:15:12;97165.75;;;8.35;68.12
49044;BME280;34860;48.066;14.124;2024-02-15T07:18:01;97165.59;;;8.53;67.46
49044;BME280;34860;48.066;14.124;2024-02-15T07:20:50;97161.84;;;8.70;68.09
49044;BME280;34860;48.066;14.124;2024-02-15T07:23:40;97166.53;;;8.77;67.86
49044;BME280;34860;48.066;14.124;2024-02-15T07:26:30;97166.88;;;8.83;67.98
49044;BME280;34860;48.066;14.124;2024-02-15T07:29:20;97165.63;;;8.87;67.98
49044;BME280;34860;48.066;14.124;2024-02-15T07:32:12;97162.34;;;8.96;67.83
49044;BME280;34860;48.066;14.124;2024-02-15T07:35:02;97156.72;;;9.03;67.67
49044;BME280;34860;48.066;14.124;2024-02-15T07:37:53;97159.22;;;9.25;67.89
49044;BME280;34860;48.066;14.124;2024-02-15T07:40:43;97170.75;;;9.51;67.65
49044;BME280;34860;48.066;14.124;2024-02-15T07:43:32;97163.88;;;9.62;67.92
49044;BME280;34860;48.066;14.124;2024-02-15T07:46:22;97166.59;;;9.66;68.63
49044;BME280;34860;48.066;14.124;2024-02-15T07:49:13;97169.50;;;9.55;68.91
49044;BME280;34860;48.066;14.124;2024-02-15T07:52:04;97164.28;;;9.34;69.29
49044;BME280;34860;48.066;14.124;2024-02-15T07:54:54;97174.75;;;9.19;69.73
49044;BME280;34860;48.066;14.124;2024-02-15T07:57:43;97169.00;;;9.02;70.01
49044;BME280;34860;48.066;14.124;2024-02-15T08:00:34;97162.44;;;8.89;69.95
49044;BME280;34860;48.066;14.124;2024-02-15T08:03:25;97167.66;;;8.83;70.08
49044;BME280;34860;48.066;14.124;2024-02-15T08:06:18;97153.56;;;9.01;69.84
49044;BME280;34860;48.066;14.124;2024-02-15T08:09:08;97167.53;;;9.29;69.02
49044;BME280;34860;48.066;14.124;2024-02-15T08:12:01;97160.88;;;9.50;68.27
49044;BME280;34860;48.066;14.124;2024-02-15T08:14:50;97159.72;;;9.47;68.08
49044;BME280;34860;48.066;14.124;2024-02-15T08:17:40;97158.91;;;9.19;68.91
49044;BME280;34860;48.066;14.124;2024-02-15T08:20:30;97157.09;;;9.05;69.14
49044;BME280;34860;48.066;14.124;2024-02-15T08:23:22;97156.72;;;9.03;69.32
49044;BME280;34860;48.066;14.124;2024-02-15T08:26:14;97159.25;;;8.90;69.46
49044;BME280;34860;48.066;14.124;2024-02-15T08:29:04;97164.81;;;8.87;69.63
49044;BME280;34860;48.066;14.124;2024-02-15T08:31:54;97162.28;;;9.00;69.32
49044;BME280;34860;48.066;14.124;2024-02-15T08:34:43;97167.53;;;9.25;68.73
49044;BME280;34860;48.066;14.124;2024-02-15T08:37:34;97167.91;;;9.58;67.95
49044;BME280;34860;48.066;14.124;2024-02-15T08:40:25;97165.97;;;9.82;67.31
49044;BME280;34860;48.066;14.124;2024-02-15T08:43:15;97163.31;;;9.98;66.78
49044;BME280;34860;48.066;14.124;2024-02-15T08:46:05;97172.88;;;9.97;66.97
49044;BME280;34860;48.066;14.124;2024-02-15T08:48:54;97166.75;;;9.82;67.46
49044;BME280;34860;48.066;14.124;2024-02-15T08:51:43;97162.56;;;9.71;68.01
49044;BME280;34860;48.066;14.124;2024-02-15T08:54:33;97160.69;;;9.64;68.22
49044;BME280;34860;48.066;14.124;2024-02-15T08:57:24;97166.19;;;9.68;68.42
49044;BME280;34860;48.066;14.124;2024-02-15T09:00:13;97169.56;;;9.79;68.13
49044;BME280;34860;48.066;14.124;2024-02-15T09:03:04;97172.19;;;9.90;68.13
49044;BME280;34860;48.066;14.124;2024-02-15T09:05:54;97177.09;;;10.06;67.97
49044;BME280;34860;48.066;14.124;2024-02-15T09:08:46;97183.09;;;10.28;67.31
49044;BME280;34860;48.066;14.124;2024-02-15T09:11:35;97177.75;;;10.41;66.90
49044;BME280;34860;48.066;14.124;2024-02-15T09:14:27;97171.53;;;10.57;66.76
49044;BME280;34860;48.066;14.124;2024-02-15T09:17:16;97166.97;;;10.66;66.49
49044;BME280;34860;48.066;14.124;2024-02-15T09:20:07;97159.56;;;10.80;66.50
49044;BME280;34860;48.066;14.124;2024-02-15T09:23:00;97168.34;;;11.18;66.13
49044;BME280;34860;48.066;14.124;2024-02-15T09:25:56;97173.38;;;11.63;65.18
49044;BME280;34860;48.066;14.124;2024-02-15T09:28:46;97167.44;;;11.98;64.70
49044;BME280;34860;48.066;14.124;2024-02-15T09:31:37;97168.41;;;12.24;64.52
49044;BME280;34860;48.066;14.124;2024-02-15T09:34:27;97165.09;;;12.29;64.40
49044;BME280;34860;48.066;14.124;2024-02-15T09:37:18;97164.31;;;12.29;64.34
49044;BME280;34860;48.066;14.124;2024-02-15T09:40:08;97160.41;;;12.10;64.39
49044;BME280;34860;48.066;14.124;2024-02-15T09:42:58;97165.78;;;12.01;64.55
49044;BME280;34860;48.066;14.124;2024-02-15T09:45:47;97160.75;;;11.95;64.45
49044;BME280;34860;48.066;14.124;2024-02-15T09:48:39;97159.94;;;11.95;64.49
49044;BME280;34860;48.066;14.124;2024-02-15T09:51:32;97155.09;;;11.99;64.43
49044;BME280;34860;48.066;14.124;2024-02-15T09:54:22;97162.13;;;12.04;64.37
49044;BME280;34860;48.066;14.124;2024-02-15T09:57:11;97158.47;;;12.07;64.19
49044;BME280;34860;48.066;14.124;2024-02-15T10:00:01;97158.06;;;12.08;64.24
49044;BME280;34860;48.066;14.124;2024-02-15T10:02:51;97161.44;;;12.16;63.85
49044;BME280;34860;48.066;14.124;2024-02-15T10:05:44;97148.63;;;12.18;63.68
49044;BME280;34860;48.066;14.124;2024-02-15T10:08:33;97147.53;;;12.16;63.87
49044;BME280;34860;48.066;14.124;2024-02-15T10:11:23;97158.66;;;12.16;63.78
49044;BME280;34860;48.066;14.124;2024-02-15T10:14:12;97154.22;;;12.18;63.59
49044;BME280;34860;48.066;14.124;2024-02-15T10:17:06;97149.25;;;12.26;63.45
49044;BME280;34860;48.066;14.124;2024-02-15T10:20:06;97143.50;;;12.33;63.26
49044;BME280;34860;48.066;14.124;2024-02-15T10:23:12;97142.34;;;12.47;63.07
49044;BME280;34860;48.066;14.124;2024-02-15T10:26:19;97145.28;;;12.57;62.92
49044;BME280;34860;48.066;14.124;2024-02-15T10:29:12;97137.34;;;12.55;62.89
49044;BME280;34860;48.066;14.124;2024-02-15T10:32:04;97130.22;;;12.54;62.80
49044;BME280;34860;48.066;14.124;2024-02-15T10:34:57;97135.81;;;12.54;62.80
49044;BME280;34860;48.066;14.124;2024-02-15T10:37:48;97137.91;;;12.50;62.86
49044;BME280;34860;48.066;14.124;2024-02-15T10:40:40;97137.91;;;12.50;62.95
49044;BME280;34860;48.066;14.124;2024-02-15T10:43:30;97134.22;;;12.53;63.09
49044;BME280;34860;48.066;14.124;2024-02-15T10:46:19;97131.69;;;12.59;62.80
49044;BME280;34860;48.066;14.124;2024-02-15T10:49:09;97125.16;;;12.65;62.86
49044;BME280;34860;48.066;14.124;2024-02-15T10:52:00;97122.59;;;12.71;62.78
49044;BME280;34860;48.066;14.124;2024-02-15T10:54:53;97117.34;;;13.02;62.37
49044;BME280;34860;48.066;14.124;2024-02-15T10:57:51;97112.47;;;13.19;62.15
49044;BME280;34860;48.066;14.124;2024-02-15T11:00:42;97112.59;;;13.29;61.84
49044;BME280;34860;48.066;14.124;2024-02-15T11:03:35;97108.97;;;13.44;62.01
49044;BME280;34860;48.066;14.124;2024-02-15T11:06:27;97103.28;;;13.61;61.72
49044;BME280;34860;48.066;14.124;2024-02-15T11:09:17;97091.28;;;13.86;61.20
49044;BME280;34860;48.066;14.124;2024-02-15T11:12:07;97083.78;;;14.09;60.92
49044;BME280;34860;48.066;14.124;2024-02-15T11:14:58;97086.03;;;14.49;60.19
49044;BME280;34860;48.066;14.124;2024-02-15T11:17:48;97083.53;;;14.64;59.70
49044;BME280;34860;48.066;14.124;2024-02-15T11:20:49;97088.97;;;14.32;60.64
49044;BME280;34860;48.066;14.124;2024-02-15T11:23:40;97088.69;;;14.17;61.39
49044;BME280;34860;48.066;14.124;2024-02-15T11:26:45;97076.75;;;14.04;61.42
49044;BME280;34860;48.066;14.124;2024-02-15T11:29:48;97075.75;;;13.98;61.75
49044;BME280;34860;48.066;14.124;2024-02-15T11:32:41;97068.88;;;13.77;62.42
49044;BME280;34860;48.066;14.124;2024-02-15T11:35:35;97063.84;;;13.46;63.28
49044;BME280;34860;48.066;14.124;2024-02-15T11:38:45;97061.00;;;13.20;63.87
49044;BME280;34860;48.066;14.124;2024-02-15T11:41:34;97053.63;;;13.14;64.06
49044;BME280;34860;48.066;14.124;2024-02-15T11:44:24;97048.06;;;13.14;64.37
49044;BME280;34860;48.066;14.124;2024-02-15T11:47:13;97048.16;;;13.10;64.18
49044;BME280;34860;48.066;14.124;2024-02-15T11:50:10;97043.91;;;12.93;64.74
49044;BME280;34860;48.066;14.124;2024-02-15T11:53:04;97042.06;;;12.86;64.87
49044;BME280;34860;48.066;14.124;2024-02-15T11:56:00;97033.94;;;12.79;65.05
49044;BME280;34860;48.066;14.124;2024-02-15T11:59:01;97035.47;;;12.67;65.18
49044;BME280;34860;48.066;14.124;2024-02-15T12:01:53;97034.81;;;12.76;65.14
49044;BME280;34860;48.066;14.124;2024-02-15T12:04:59;97027.63;;;13.04;64.55
49044;BME280;34860;48.066;14.124;2024-02-15T12:08:07;97025.16;;;13.06;64.23
49044;BME280;34860;48.066;14.124;2024-02-15T12:11:16;97016.69;;;13.09;64.27
49044;BME280;34860;48.066;14.124;2024-02-15T12:14:22;97012.22;;;12.99;64.63
49044;BME280;34860;48.066;14.124;2024-02-15T12:17:28;97010.31;;;12.96;64.69
49044;BME280;34860;48.066;14.124;2024-02-15T12:20:34;97004.72;;;12.96;64.61
49044;BME280;34860;48.066;14.124;2024-02-15T12:23:25;97005.31;;;13.17;64.19
49044;BME280;34860;48.066;14.124;2024-02-15T12:26:18;96994.47;;;13.32;63.50
49044;BME280;34860;48.066;14.124;2024-02-15T12:29:07;96990.59;;;13.42;63.49
49044;BME280;34860;48.066;14.124;2024-02-15T12:31:58;96992.03;;;13.47;63.26
49044;BME280;34860;48.066;14.124;2024-02-15T12:34:47;96991.94;;;13.50;63.24
49044;BME280;34860;48.066;14.124;2024-02-15T12:37:37;96986.63;;;13.65;63.00
49044;BME280;34860;48.066;14.124;2024-02-15T12:40:33;96982.38;;;13.73;62.41
49044;BME280;34860;48.066;14.124;2024-02-15T12:43:22;96979.81;;;13.79;62.40
49044;BME280;34860;48.066;14.124;2024-02-15T12:46:12;96976.81;;;13.60;62.46
49044;BME280;34860;48.066;14.124;2024-02-15T12:49:08;96979.13;;;13.75;62.51
49044;BME280;34860;48.066;14.124;2024-02-15T12:52:32;96972.31;;;14.11;61.88
49044;BME280;34860;48.066;14.124;2024-02-15T12:55:23;96965.47;;;15.00;59.90
49044;BME280;34860;48.066;14.124;2024-02-15T12:58:14;96957.63;;;15.86;57.97
49044;BME280;34860;48.066;14.124;2024-02-15T13:01:06;96959.97;;;16.33;57.08
49044;BME280;34860;48.066;14.124;2024-02-15T13:03:56;96960.13;;;17.19;55.36
49044;BME280;34860;48.066;14.124;2024-02-15T13:06:46;96954.94;;;17.27;55.11
49044;BME280;34860;48.066;14.124;2024-02-15T13:09:35;96962.19;;;17.42;55.23
49044;BME280;34860;48.066;14.124;2024-02-15T13:12:24;96949.31;;;17.27;55.25
49044;BME280;34860;48.066;14.124;2024-02-15T13:15:15;96946.31;;;16.97;56.02
49044;BME280;34860;48.066;14.124;2024-02-15T13:18:07;96949.84;;;17.06;56.32
49044;BME280;34860;48.066;14.124;2024-02-15T13:20:58;96938.19;;;17.32;55.49
49044;BME280;34860;48.066;14.124;2024-02-15T13:23:48;96941.72;;;17.09;56.07
49044;BME280;34860;48.066;14.124;2024-02-15T13:26:38;96941.50;;;16.79;56.67
49044;BME280;34860;48.066;14.124;2024-02-15T13:29:27;96944.53;;;16.57;57.23
49044;BME280;34860;48.066;14.124;2024-02-15T13:32:19;96932.00;;;16.85;57.23
49044;BME280;34860;48.066;14.124;2024-02-15T13:35:10;96932.13;;;17.24;55.97
49044;BME280;34860;48.066;14.124;2024-02-15T13:38:02;96932.94;;;17.25;55.92
49044;BME280;34860;48.066;14.124;2024-02-15T13:40:51;96930.50;;;17.09;56.43
49044;BME280;34860;48.066;14.124;2024-02-15T13:43:42;96928.25;;;16.70;57.18
49044;BME280;34860;48.066;14.124;2024-02-15T13:46:32;96928.72;;;17.78;55.35
49044;BME280;34860;48.066;14.124;2024-02-15T13:49:26;96923.66;;;18.75;52.49
49044;BME280;34860;48.066;14.124;2024-02-15T13:52:18;96915.31;;;18.51;53.12
49044;BME280;34860;48.066;14.124;2024-02-15T13:55:09;96920.31;;;18.17;53.80
49044;BME280;34860;48.066;14.124;2024-02-15T13:58:00;96908.56;;;17.79;54.67
49044;BME280;34860;48.066;14.124;2024-02-15T14:00:49;96907.53;;;17.19;56.10
49044;BME280;34860;48.066;14.124;2024-02-15T14:03:40;96902.34;;;16.94;56.69
49044;BME280;34860;48.066;14.124;2024-02-15T14:06:30;96892.13;;;17.05;56.61
49044;BME280;34860;48.066;14.124;2024-02-15T14:09:21;96903.13;;;17.76;55.06
49044;BME280;34860;48.066;14.124;2024-02-15T14:12:16;96892.03;;;18.65;52.96
49044;BME280;34860;48.066;14.124;2024-02-15T14:15:06;96895.25;;;19.23;51.28
49044;BME280;34860;48.066;14.124;2024-02-15T14:17:57;96901.78;;;19.50;50.84
49044;BME280;34860;48.066;14.124;2024-02-15T14:20:49;96896.44;;;19.17;51.36
49044;BME280;34860;48.066;14.124;2024-02-15T14:23:40;96893.84;;;18.24;53.23
49044;BME280;34860;48.066;14.124;2024-02-15T14:26:31;96894.75;;;17.91;54.20
49044;BME280;34860;48.066;14.124;2024-02-15T14:29:20;96889.34;;;18.02;53.79
49044;BME280;34860;48.066;14.124;2024-02-15T14:32:13;96895.78;;;17.54;54.68
49044;BME280;34860;48.066;14.124;2024-02-15T14:35:19;96885.25;;;16.64;56.69
49044;BME280;34860;48.066;14.124;2024-02-15T14:38:10;96883.66;;;16.11;57.50
49044;BME280;34860;48.066;14.124;2024-02-15T14:41:02;96885.50;;;15.68;58.09
49044;BME280;34860;48.066;14.124;2024-02-15T14:43:54;96889.50;;;15.30;58.74
49044;BME280;34860;48.066;14.124;2024-02-15T14:46:44;96882.56;;;15.03;59.41
49044;BME280;34860;48.066;14.124;2024-02-15T14:49:34;96875.06;;;14.81;59.59
49044;BME280;34860;48.066;14.124;2024-02-15T14:52:23;96886.16;;;14.63;59.65
49044;BME280;34860;48.066;14.124;2024-02-15T14:55:13;96875.63;;;14.45;59.97
49044;BME280;34860;48.066;14.124;2024-02-15T14:58:04;96875.78;;;14.19;60.65
49044;BME280;34860;48.066;14.124;2024-02-15T15:00:58;96878.66;;;14.06;60.56
49044;BME280;34860;48.066;14.124;2024-02-15T15:03:55;96881.84;;;13.95;60.91